Repubbli Del Brasile — IBZB — position and weather

sailwx.info

Track history (hours):
 
Tides and Currents Weather Stations Pressure Air Temp Water Temp Dewpoint Dewpoint Depression Visibility Wind Speed Wind Dir Waves Ship Positions

Repubbli Del Brasile

Last reported at 2016-May-28 07:33 UTC. Time now 2016-May-28 07:59 UTC.
Position N 35°57' W 005°29'.

Length 209 m; draft 7.8 m.

Type: Cargo ship. MMSI: 247310000.

Date/timePositionNaut miles runAvg speedWind from/ knotsBaromVisibWave heightAir tempDewpointWater temp
2016-May-28 07:33N 35°57' W 005°29'  
2016-May-23 18:33N 15°46' W 017°43'5613.0
2016-May-23 14:13N 14°50' W 017°39'812.8
2016-May-23 13:33N 14°42' W 017°39'3417.0
2016-May-23 11:33N 14°08' W 017°40'1413.9
2016-May-23 10:33N 13°54' W 017°41'2814.1
2016-May-23 08:33N 13°26' W 017°41'1414.1
2016-May-23 07:34N 13°12' W 017°42'1413.8
2016-May-23 06:33N 12°58' W 017°43'1413.8
2016-May-23 05:31N 12°43' W 017°41'1713.8
2016-May-23 04:17N 12°26' W 017°42'2713.8
2016-May-23 02:17N 11°59' W 017°42'  
Track history (hours):
 
Tides and Currents Weather Stations Pressure Air Temp Water Temp Dewpoint Dewpoint Depression Visibility Wind Speed Wind Dir Waves Ship Positions

Repubbli Del Brasile

Last reported at 2016-May-28 07:33 UTC. Time now 2016-May-28 07:59 UTC.
Position N 35°57' W 005°29'.

Length 209 m; draft 7.8 m.

Type: Cargo ship. MMSI: 247310000.

Date/timePositionNaut miles runAvg speedWind from/ knotsBaromVisibWave heightAir tempDewpointWater temp
2016-May-28 07:33N 35°57' W 005°29'  
2016-May-23 18:33N 15°46' W 017°43'5613.0
2016-May-23 14:13N 14°50' W 017°39'812.8
2016-May-23 13:33N 14°42' W 017°39'3417.0
2016-May-23 11:33N 14°08' W 017°40'1413.9
2016-May-23 10:33N 13°54' W 017°41'2814.1
2016-May-23 08:33N 13°26' W 017°41'1414.1
2016-May-23 07:34N 13°12' W 017°42'1413.8
2016-May-23 06:33N 12°58' W 017°43'1413.8
2016-May-23 05:31N 12°43' W 017°41'1713.8
2016-May-23 04:17N 12°26' W 017°42'2713.8
2016-May-23 02:17N 11°59' W 017°42'  

Dump ship's entire track history